createdAt,value
2018-01-14T00:01:33.500Z,13.17
2018-01-14T00:04:00.735Z,14.80
2018-01-14T00:06:27.960Z,13.90
2018-01-14T00:08:55.192Z,11.20
2018-01-14T00:11:22.410Z,11.97
2018-01-14T00:13:49.626Z,16.47
2018-01-14T00:16:16.856Z,14.83
2018-01-14T00:18:44.104Z,15.67
2018-01-14T00:21:11.336Z,14.83
2018-01-14T00:23:38.556Z,11.20
2018-01-14T00:26:05.834Z,15.67
2018-01-14T00:28:33.071Z,14.00
2018-01-14T00:31:00.294Z,30.07
2018-01-14T00:33:27.533Z,16.73
2018-01-14T00:35:54.772Z,17.77
2018-01-14T00:38:21.992Z,18.10
2018-01-14T00:40:49.223Z,17.57
2018-01-14T00:43:16.453Z,20.77
2018-01-14T00:45:43.692Z,16.13
2018-01-14T00:48:10.724Z,19.90
2018-01-14T00:50:37.945Z,16.03
2018-01-14T00:53:06.074Z,16.53
2018-01-14T00:55:33.508Z,13.17
2018-01-14T00:58:00.777Z,18.27
2018-01-14T01:00:28.019Z,14.90
2018-01-14T01:02:55.486Z,16.63
2018-01-14T01:05:22.717Z,14.03
2018-01-14T01:07:50.074Z,21.80
2018-01-14T01:10:17.964Z,15.30
2018-01-14T01:12:45.192Z,16.37
2018-01-14T01:15:13.772Z,13.70
2018-01-14T01:17:40.988Z,15.43
2018-01-14T01:20:08.245Z,11.30
2018-01-14T01:22:35.471Z,18.50
2018-01-14T01:25:02.743Z,15.07
2018-01-14T01:27:30.184Z,18.23
2018-01-14T01:29:57.438Z,16.27
2018-01-14T01:32:24.657Z,16.10
2018-01-14T01:34:51.874Z,16.73
2018-01-14T01:37:19.101Z,17.43
2018-01-14T01:39:46.354Z,14.20
2018-01-14T01:42:13.590Z,19.63
2018-01-14T01:44:40.813Z,17.23
2018-01-14T01:47:08.064Z,12.77
2018-01-14T01:49:35.302Z,19.63
2018-01-14T01:52:03.096Z,13.83
2018-01-14T01:54:30.672Z,14.80
2018-01-14T01:56:57.893Z,15.40
2018-01-14T01:59:25.128Z,15.50
2018-01-14T02:01:52.360Z,17.03
2018-01-14T02:04:19.575Z,17.43
2018-01-14T02:06:46.808Z,18.67
2018-01-14T02:09:14.020Z,18.43
2018-01-14T02:11:41.257Z,19.17
2018-01-14T02:14:08.467Z,18.20
2018-01-14T02:16:35.696Z,19.10
2018-01-14T02:19:02.935Z,22.00
2018-01-14T02:21:30.200Z,15.40
2018-01-14T02:23:57.884Z,17.90
2018-01-14T02:26:26.383Z,22.17
2018-01-14T02:28:53.597Z,20.70
2018-01-14T02:31:20.845Z,19.10
2018-01-14T02:33:48.284Z,25.83
2018-01-14T02:36:15.500Z,18.30
2018-01-14T02:38:42.733Z,18.27
2018-01-14T02:41:09.972Z,17.67
2018-01-14T02:43:37.192Z,22.27
2018-01-14T02:46:04.419Z,21.30
2018-01-14T02:48:31.669Z,18.10
2018-01-14T02:50:58.907Z,19.13
2018-01-14T02:53:26.124Z,14.37
2018-01-14T02:55:54.904Z,14.90
2018-01-14T02:58:22.125Z,16.73
2018-01-14T03:00:49.337Z,16.97
2018-01-14T03:03:17.156Z,16.47
2018-01-14T03:05:44.372Z,21.10
2018-01-14T03:08:11.594Z,18.70
2018-01-14T03:10:38.808Z,16.07
2018-01-14T03:13:06.132Z,16.77
2018-01-14T03:15:33.360Z,18.97
2018-01-14T03:18:00.583Z,20.30
2018-01-14T03:20:28.060Z,17.33
2018-01-14T03:22:55.095Z,21.87
2018-01-14T03:25:22.332Z,19.10
2018-01-14T03:27:49.550Z,20.57
2018-01-14T03:30:16.766Z,18.30
2018-01-14T03:32:44.000Z,19.10
2018-01-14T03:35:11.223Z,20.67
2018-01-14T03:37:38.457Z,19.30
2018-01-14T03:40:05.671Z,18.93
2018-01-14T03:42:32.908Z,21.57
2018-01-14T03:45:00.132Z,20.80
2018-01-14T03:47:27.348Z,23.50
2018-01-14T03:49:54.827Z,25.23
2018-01-14T03:52:22.108Z,21.93
2018-01-14T03:54:49.340Z,23.30
2018-01-14T03:57:16.593Z,24.40
2018-01-14T03:59:44.452Z,25.03
2018-01-14T04:02:11.672Z,21.13
2018-01-14T04:04:38.893Z,21.30
2018-01-14T04:07:06.129Z,24.00
2018-01-14T04:09:33.364Z,22.03
2018-01-14T04:12:01.464Z,24.03
2018-01-14T04:14:28.684Z,21.20
2018-01-14T04:16:55.922Z,24.47
2018-01-14T04:19:23.647Z,26.10
2018-01-14T04:21:50.877Z,27.60
2018-01-14T04:24:18.104Z,25.47
2018-01-14T04:26:45.325Z,35.83
2018-01-14T04:29:12.556Z,34.03
2018-01-14T04:31:39.793Z,29.00
2018-01-14T04:34:07.026Z,37.17
2018-01-14T04:36:34.246Z,35.33
2018-01-14T04:39:02.005Z,33.70
2018-01-14T04:41:29.233Z,36.33
2018-01-14T04:43:56.470Z,33.50
2018-01-14T04:46:23.712Z,40.13
2018-01-14T04:48:50.927Z,36.77
2018-01-14T04:51:18.608Z,44.07
2018-01-14T04:53:45.824Z,37.30
2018-01-14T04:56:13.056Z,36.37
2018-01-14T04:58:40.284Z,41.57
2018-01-14T05:01:08.104Z,38.53
2018-01-14T05:03:35.364Z,34.00
2018-01-14T05:06:02.573Z,36.33
2018-01-14T05:08:30.337Z,35.93
2018-01-14T05:10:57.599Z,37.00
2018-01-14T05:13:24.981Z,39.03
2018-01-14T05:15:52.197Z,33.37
2018-01-14T05:18:19.432Z,40.10
2018-01-14T05:20:46.652Z,39.10
2018-01-14T05:23:13.871Z,36.23
2018-01-14T05:25:41.107Z,38.10
2018-01-14T05:28:08.360Z,41.00
2018-01-14T05:30:35.587Z,42.57
2018-01-14T05:33:03.440Z,44.60
2018-01-14T05:35:30.657Z,40.00
2018-01-14T05:37:57.884Z,38.00
2018-01-14T05:40:25.104Z,36.90
2018-01-14T05:42:52.346Z,37.37
2018-01-14T05:45:19.566Z,43.40
2018-01-14T05:47:46.796Z,37.97
2018-01-14T05:50:14.020Z,41.97
2018-01-14T05:52:41.249Z,37.97
2018-01-14T05:55:08.846Z,37.87
2018-01-14T05:57:36.080Z,38.97
2018-01-14T06:00:02.988Z,32.93
2018-01-14T06:02:30.709Z,36.00
2018-01-14T06:04:57.940Z,40.27
2018-01-14T06:07:24.985Z,37.00
2018-01-14T06:09:52.213Z,39.00
2018-01-14T06:12:19.445Z,38.93
2018-01-14T06:14:46.672Z,43.27
2018-01-14T06:17:13.888Z,36.80
2018-01-14T06:19:41.109Z,33.57
2018-01-14T06:22:08.336Z,33.00
2018-01-14T06:24:35.572Z,37.70
2018-01-14T06:27:02.784Z,34.17
2018-01-14T06:29:30.017Z,35.73
2018-01-14T06:31:57.623Z,37.53
2018-01-14T06:34:24.840Z,39.83
2018-01-14T06:36:52.075Z,37.57
2018-01-14T06:39:20.201Z,47.90
2018-01-14T06:41:47.421Z,40.23
2018-01-14T06:44:15.185Z,40.73
2018-01-14T06:46:42.419Z,41.87
2018-01-14T06:49:09.896Z,39.80
2018-01-14T06:51:37.140Z,40.30
2018-01-14T06:54:04.201Z,44.60
2018-01-14T06:56:32.264Z,48.70
2018-01-14T06:58:59.487Z,46.87
2018-01-14T07:01:27.238Z,41.07
2018-01-14T07:03:54.457Z,39.70
2018-01-14T07:06:21.677Z,43.33
2018-01-14T07:08:48.912Z,39.53
2018-01-14T07:11:16.868Z,38.63
2018-01-14T07:13:44.092Z,41.73
2018-01-14T07:16:12.027Z,45.60
2018-01-14T07:18:39.258Z,45.10
2018-01-14T07:21:06.511Z,42.20
2018-01-14T07:23:33.756Z,44.10
2018-01-14T07:26:00.825Z,41.03
2018-01-14T07:28:28.055Z,41.90
2018-01-14T07:30:55.289Z,39.80
2018-01-14T07:33:22.517Z,39.50
2018-01-14T07:35:50.384Z,42.93
2018-01-14T07:38:17.601Z,38.33
2018-01-14T07:40:45.297Z,44.67
2018-01-14T07:43:13.158Z,41.57
2018-01-14T07:45:41.016Z,42.77
2018-01-14T07:48:08.232Z,48.10
2018-01-14T07:50:35.456Z,40.43
2018-01-14T07:53:02.715Z,36.00
2018-01-14T07:55:30.117Z,46.77
2018-01-14T07:57:57.384Z,40.13
2018-01-14T08:00:24.613Z,41.17
2018-01-14T08:02:51.848Z,46.40
2018-01-14T08:05:19.512Z,41.93
2018-01-14T08:07:46.748Z,46.47
2018-01-14T08:10:14.400Z,46.57
2018-01-14T08:12:41.614Z,53.30
2018-01-14T08:15:08.837Z,42.77
2018-01-14T08:17:36.825Z,39.70
2018-01-14T08:20:04.162Z,37.80
2018-01-14T08:22:31.402Z,42.70
2018-01-14T08:24:58.646Z,36.17
2018-01-14T08:27:25.870Z,39.10
2018-01-14T08:29:53.429Z,37.47
2018-01-14T08:32:20.991Z,40.97
2018-01-14T08:34:48.227Z,47.93
2018-01-14T08:37:16.862Z,36.90
2018-01-14T08:39:44.096Z,41.17
2018-01-14T08:42:14.091Z,40.13
2018-01-14T08:44:41.663Z,42.43
2018-01-14T08:47:14.218Z,36.57
2018-01-14T08:49:41.451Z,47.13
2018-01-14T08:52:08.872Z,40.40
2018-01-14T08:54:36.096Z,45.00
2018-01-14T08:57:03.311Z,39.10
2018-01-14T08:59:30.530Z,41.60
2018-01-14T09:01:57.781Z,43.07
2018-01-14T09:04:25.044Z,46.67
2018-01-14T09:06:52.259Z,40.17
2018-01-14T09:09:19.744Z,43.00
2018-01-14T09:11:46.952Z,36.53
2018-01-14T09:14:14.185Z,39.67
2018-01-14T09:16:41.785Z,37.43
2018-01-14T09:19:09.038Z,41.70
2018-01-14T09:21:36.436Z,39.60
2018-01-14T09:24:03.677Z,52.07
2018-01-14T09:26:30.892Z,41.53
2018-01-14T09:28:58.143Z,37.90
2018-01-14T09:31:25.382Z,38.83
2018-01-14T09:33:52.592Z,41.03
2018-01-14T09:36:19.827Z,43.47
2018-01-14T09:38:47.065Z,37.93
2018-01-14T09:41:15.172Z,40.10
2018-01-14T09:43:42.404Z,39.80
2018-01-14T09:46:09.781Z,38.90
2018-01-14T09:48:37.056Z,31.40
2018-01-14T09:51:05.756Z,39.80
2018-01-14T09:53:32.965Z,34.03
2018-01-14T09:56:00.210Z,36.97
2018-01-14T09:58:27.440Z,33.87
2018-01-14T10:00:55.474Z,32.77
2018-01-14T10:03:22.703Z,36.47
2018-01-14T10:05:50.740Z,32.73
2018-01-14T10:08:17.994Z,27.17
2018-01-14T10:10:45.233Z,25.57
2018-01-14T10:13:12.486Z,23.20
2018-01-14T10:15:39.732Z,24.70
2018-01-14T10:18:07.299Z,24.53
2018-01-14T10:20:34.518Z,25.70
2018-01-14T10:23:02.464Z,22.20
2018-01-14T10:25:29.690Z,17.90
2018-01-14T10:27:57.294Z,21.17
2018-01-14T10:30:24.517Z,22.63
2018-01-14T10:32:51.754Z,20.63
2018-01-14T10:35:18.972Z,19.77
2018-01-14T10:37:47.604Z,22.40
2018-01-14T10:40:15.418Z,19.20
2018-01-14T10:42:44.303Z,19.70
2018-01-14T10:45:11.560Z,19.80
2018-01-14T10:47:39.745Z,22.60
2018-01-14T10:50:06.967Z,16.13
2018-01-14T10:52:34.192Z,19.57
2018-01-14T10:55:02.022Z,16.77
2018-01-14T10:57:29.274Z,19.47
2018-01-14T10:59:56.491Z,23.50
2018-01-14T11:02:23.709Z,18.77
2018-01-14T11:04:50.949Z,15.80
2018-01-14T11:07:18.785Z,15.93
2018-01-14T11:09:46.607Z,21.70
2018-01-14T11:12:13.835Z,17.90
2018-01-14T11:14:41.904Z,20.90
2018-01-14T11:17:09.136Z,19.40
2018-01-14T11:19:36.232Z,14.00
2018-01-14T11:22:03.466Z,17.10
2018-01-14T11:24:30.680Z,19.50
2018-01-14T11:26:57.617Z,15.23
2018-01-14T11:29:31.066Z,18.13
2018-01-14T11:31:58.299Z,21.80
2018-01-14T11:34:25.528Z,16.20
2018-01-14T11:36:52.798Z,14.03
2018-01-14T11:39:20.017Z,23.60
2018-01-14T11:41:47.238Z,25.03
2018-01-14T11:44:14.466Z,19.20
2018-01-14T11:46:41.720Z,14.90
2018-01-14T11:49:08.948Z,15.10
2018-01-14T11:51:36.212Z,18.83
2018-01-14T11:54:03.440Z,13.33
2018-01-14T11:56:30.659Z,15.53
2018-01-14T11:58:57.939Z,15.90
2018-01-14T12:01:25.181Z,12.20
2018-01-14T12:03:52.811Z,15.13
2018-01-14T12:06:20.071Z,14.90
2018-01-14T12:08:47.316Z,15.00
2018-01-14T12:11:14.549Z,16.50
2018-01-14T12:13:41.782Z,21.73
2018-01-14T12:16:09.005Z,18.33
2018-01-14T12:18:37.642Z,17.70
2018-01-14T12:21:06.788Z,18.70
2018-01-14T12:23:34.957Z,17.70
2018-01-14T12:26:02.188Z,17.10
2018-01-14T12:28:29.421Z,22.20
2018-01-14T12:30:57.116Z,16.80
2018-01-14T12:33:44.732Z,18.43
2018-01-14T12:36:13.975Z,18.43
2018-01-14T12:38:42.018Z,17.13
2018-01-14T12:41:09.879Z,21.57
2018-01-14T12:43:37.350Z,15.30
2018-01-14T12:46:04.584Z,17.50
2018-01-14T12:48:32.742Z,20.30
2018-01-14T12:51:01.246Z,26.13
2018-01-14T12:53:28.724Z,21.67
2018-01-14T12:55:56.764Z,18.23
2018-01-14T12:58:24.051Z,20.90
2018-01-14T13:00:51.296Z,20.20
2018-01-14T13:03:18.534Z,22.53
2018-01-14T13:05:45.754Z,20.10
2018-01-14T13:08:12.983Z,18.40
2018-01-14T13:10:40.221Z,21.10
2018-01-14T13:13:07.441Z,17.90
2018-01-14T13:15:35.534Z,18.80
2018-01-14T13:18:03.090Z,17.57
2018-01-14T13:20:30.308Z,17.43
2018-01-14T13:22:58.892Z,17.10
2018-01-14T13:25:26.940Z,24.23
2018-01-14T13:27:54.824Z,23.67
2018-01-14T13:30:22.057Z,24.40
2018-01-14T13:32:49.613Z,25.00
2018-01-14T13:35:16.829Z,23.63
2018-01-14T13:37:44.083Z,25.03
2018-01-14T13:40:11.294Z,25.70
2018-01-14T13:42:38.517Z,21.77
2018-01-14T13:45:05.746Z,23.43
2018-01-14T13:47:32.968Z,23.07
2018-01-14T13:50:00.737Z,18.43
2018-01-14T13:52:27.963Z,19.63
2018-01-14T13:54:55.217Z,22.77
2018-01-14T13:57:25.450Z,22.00
2018-01-14T13:59:52.660Z,25.60
2018-01-14T14:02:19.889Z,23.50
2018-01-14T14:04:47.113Z,19.40
2018-01-14T14:07:14.688Z,24.37
2018-01-14T14:09:41.913Z,26.47
2018-01-14T14:12:09.147Z,25.63
2018-01-14T14:14:36.365Z,33.00
2018-01-14T14:17:03.590Z,27.40
2018-01-14T14:19:30.847Z,31.43
2018-01-14T14:21:58.074Z,30.07
2018-01-14T14:24:26.146Z,28.17
2018-01-14T14:26:53.419Z,29.27
2018-01-14T14:29:20.692Z,26.37
2018-01-14T14:31:48.622Z,29.40
2018-01-14T14:34:15.847Z,27.27
2018-01-14T14:36:43.106Z,35.13
2018-01-14T14:39:10.457Z,30.20
2018-01-14T14:41:39.545Z,27.07
2018-01-14T14:44:06.660Z,26.50
2018-01-14T14:46:33.891Z,26.07
2018-01-14T14:49:01.100Z,28.60
2018-01-14T14:51:28.352Z,30.00
2018-01-14T14:53:55.605Z,31.90
2018-01-14T14:56:22.832Z,35.70
2018-01-14T14:58:50.047Z,25.27
2018-01-14T15:01:18.288Z,33.17
2018-01-14T15:03:45.512Z,30.30
2018-01-14T15:06:12.737Z,35.27
2018-01-14T15:08:40.624Z,40.47
2018-01-14T15:11:07.874Z,36.83
2018-01-14T15:13:38.804Z,28.93
2018-01-14T15:16:07.631Z,34.73
2018-01-14T15:18:34.848Z,30.90
2018-01-14T15:21:02.114Z,32.10
2018-01-14T15:23:29.313Z,29.27
2018-01-14T15:25:56.667Z,32.90
2018-01-14T15:28:23.890Z,28.97
2018-01-14T15:30:51.128Z,28.13
2018-01-14T15:33:18.384Z,26.20
2018-01-14T15:35:45.617Z,32.30
2018-01-14T15:38:12.874Z,40.13
2018-01-14T15:40:40.096Z,33.33
2018-01-14T15:43:07.321Z,33.63
2018-01-14T15:45:36.403Z,40.43
2018-01-14T15:48:03.655Z,35.33
2018-01-14T15:50:30.922Z,42.77
2018-01-14T15:52:58.160Z,38.90
2018-01-14T15:55:26.037Z,34.27
2018-01-14T15:57:53.752Z,34.40
2018-01-14T16:00:22.692Z,35.03
2018-01-14T16:02:49.912Z,35.80
2018-01-14T16:05:17.161Z,46.10
2018-01-14T16:07:44.622Z,32.90
2018-01-14T16:10:11.864Z,36.43
2018-01-14T16:12:39.092Z,34.23
2018-01-14T16:15:06.352Z,33.33
2018-01-14T16:17:33.760Z,52.27
2018-01-14T16:20:01.422Z,37.47
2018-01-14T16:22:28.659Z,44.80
2018-01-14T16:24:56.926Z,41.47
2018-01-14T16:27:24.156Z,41.47
2018-01-14T16:29:51.377Z,37.67
2018-01-14T16:32:19.814Z,40.60
2018-01-14T16:34:47.051Z,48.67
2018-01-14T16:37:14.269Z,42.43
2018-01-14T16:39:41.492Z,39.53
2018-01-14T16:42:08.728Z,41.30
2018-01-14T16:44:35.958Z,42.70
2018-01-14T16:47:03.180Z,40.50
2018-01-14T16:49:30.454Z,47.27
2018-01-14T16:51:57.669Z,40.20
2018-01-14T16:54:24.897Z,42.33
2018-01-14T16:56:52.120Z,44.43
2018-01-14T16:59:19.779Z,39.00
2018-01-14T17:01:47.005Z,37.47
2018-01-14T17:04:14.257Z,33.70
2018-01-14T17:06:41.543Z,32.83
2018-01-14T17:09:09.092Z,38.63
2018-01-14T17:11:36.328Z,38.20
2018-01-14T17:14:03.560Z,35.67
2018-01-14T17:16:31.688Z,38.73
2018-01-14T17:18:58.912Z,37.67
2018-01-14T17:21:26.783Z,36.13
2018-01-14T17:23:54.009Z,37.70
2018-01-14T17:26:21.653Z,30.53
2018-01-14T17:28:48.872Z,35.83
2018-01-14T17:31:16.589Z,37.37
2018-01-14T17:33:43.853Z,39.23
2018-01-14T17:36:11.081Z,35.90
2018-01-14T17:38:38.310Z,38.17
2018-01-14T17:41:05.549Z,34.40
2018-01-14T17:43:32.773Z,37.43
2018-01-14T17:45:59.991Z,38.43
2018-01-14T17:48:27.229Z,34.40
2018-01-14T17:50:54.445Z,37.63
2018-01-14T17:53:22.302Z,35.53
2018-01-14T17:55:50.744Z,39.17
2018-01-14T17:58:17.970Z,40.33
2018-01-14T18:00:46.062Z,47.77
2018-01-14T18:03:14.371Z,35.63
2018-01-14T18:05:49.741Z,33.30
2018-01-14T18:08:17.509Z,37.57
2018-01-14T18:10:45.332Z,33.77
2018-01-14T18:13:12.553Z,30.00
2018-01-14T18:15:39.768Z,38.37
2018-01-14T18:18:07.320Z,41.47
2018-01-14T18:20:34.545Z,34.00
2018-01-14T18:23:01.824Z,35.70
2018-01-14T18:25:29.046Z,37.67
2018-01-14T18:27:56.296Z,36.33
2018-01-14T18:30:23.520Z,37.47
2018-01-14T18:32:50.777Z,29.87
2018-01-14T18:35:18.594Z,30.07
2018-01-14T18:37:45.949Z,33.10
2018-01-14T18:40:13.614Z,35.50
2018-01-14T18:42:40.982Z,33.30
2018-01-14T18:45:08.220Z,40.90
2018-01-14T18:47:35.356Z,35.90
2018-01-14T18:50:02.674Z,34.00
2018-01-14T18:52:30.489Z,37.60
2018-01-14T18:54:57.572Z,32.83
2018-01-14T18:57:25.634Z,36.37
2018-01-14T18:59:52.865Z,30.40
2018-01-14T19:02:20.116Z,35.00
2018-01-14T19:04:47.340Z,32.83
2018-01-14T19:07:14.554Z,35.20
2018-01-14T19:09:41.782Z,34.77
2018-01-14T19:12:09.015Z,44.87
2018-01-14T19:14:36.244Z,37.30
2018-01-14T19:17:03.473Z,46.30
2018-01-14T19:19:30.701Z,34.90
2018-01-14T19:21:58.529Z,35.10
2018-01-14T19:24:25.777Z,32.77
2018-01-14T19:26:53.024Z,36.27
2018-01-14T19:29:21.705Z,32.60
2018-01-14T19:31:48.929Z,32.63
2018-01-14T19:34:16.183Z,31.33
2018-01-14T19:36:43.409Z,33.43
2018-01-14T19:39:10.659Z,34.10
2018-01-14T19:41:37.994Z,33.07
2018-01-14T19:44:05.241Z,36.50
2018-01-14T19:46:32.484Z,32.13
2018-01-14T19:48:59.749Z,29.20
2018-01-14T19:51:26.977Z,30.30
2018-01-14T19:53:54.272Z,32.03
2018-01-14T19:56:21.577Z,33.40
2018-01-14T19:58:48.792Z,32.97
2018-01-14T20:01:16.008Z,32.90
2018-01-14T20:03:44.163Z,29.90
2018-01-14T20:06:11.901Z,34.30
2018-01-14T20:08:39.156Z,31.60
2018-01-14T20:11:06.408Z,34.30
2018-01-14T20:13:33.629Z,34.67
2018-01-14T20:16:00.859Z,34.80
2018-01-14T20:18:27.965Z,34.50
2018-01-14T20:20:55.677Z,31.00
2018-01-14T20:23:22.904Z,33.23
2018-01-14T20:25:50.133Z,34.07
2018-01-14T20:28:18.580Z,33.10
2018-01-14T20:30:45.824Z,33.27
2018-01-14T20:33:13.050Z,25.20
2018-01-14T20:35:40.281Z,28.70
2018-01-14T20:38:07.520Z,29.30
2018-01-14T20:40:34.745Z,28.70
2018-01-14T20:43:01.979Z,24.13
2018-01-14T20:45:29.208Z,29.83
2018-01-14T20:47:56.429Z,25.40
2018-01-14T20:50:23.655Z,24.77
2018-01-14T20:52:51.577Z,27.23
2018-01-14T20:55:18.823Z,29.83
2018-01-14T20:57:47.508Z,26.03
2018-01-14T21:00:14.763Z,26.23
2018-01-14T21:02:42.933Z,24.43
2018-01-14T21:05:10.397Z,34.50
2018-01-14T21:07:38.465Z,35.90
2018-01-14T21:10:08.012Z,30.93
2018-01-14T21:12:35.053Z,28.50
2018-01-14T21:15:01.977Z,30.13
2018-01-14T21:17:29.184Z,29.43
2018-01-14T21:19:56.439Z,29.80
2018-01-14T21:22:24.677Z,29.67
2018-01-14T21:24:53.925Z,34.57
2018-01-14T21:27:21.171Z,30.00
2018-01-14T21:29:48.602Z,29.90
2018-01-14T21:32:15.833Z,35.50
2018-01-14T21:34:43.071Z,31.80
2018-01-14T21:37:10.321Z,35.13
2018-01-14T21:39:37.544Z,36.00
2018-01-14T21:42:04.823Z,29.27
2018-01-14T21:44:32.168Z,32.60
2018-01-14T21:46:59.397Z,30.67
2018-01-14T21:49:26.656Z,44.17
2018-01-14T21:51:53.876Z,32.03
2018-01-14T21:54:21.236Z,39.23
2018-01-14T21:56:48.465Z,27.30
2018-01-14T21:59:15.688Z,31.33
2018-01-14T22:01:43.272Z,32.63
2018-01-14T22:04:10.496Z,36.40
2018-01-14T22:06:37.948Z,34.00
2018-01-14T22:09:04.840Z,32.37
2018-01-14T22:11:32.075Z,34.63
2018-01-14T22:13:59.307Z,30.67
2018-01-14T22:16:26.520Z,37.87
2018-01-14T22:18:53.749Z,34.20
2018-01-14T22:21:21.697Z,34.50
2018-01-14T22:23:48.937Z,36.90
2018-01-14T22:26:16.160Z,38.23
2018-01-14T22:28:43.679Z,35.20
2018-01-14T22:31:10.920Z,33.83
2018-01-14T22:33:38.152Z,33.30
2018-01-14T22:36:05.379Z,36.03
2018-01-14T22:38:32.627Z,39.80
2018-01-14T22:40:59.933Z,39.67
2018-01-14T22:43:27.205Z,31.77
2018-01-14T22:45:54.461Z,40.47
2018-01-14T22:48:21.748Z,39.77
2018-01-14T22:50:49.098Z,34.10
2018-01-14T22:53:16.316Z,33.07
2018-01-14T22:55:43.553Z,35.60
2018-01-14T22:58:10.827Z,37.77
2018-01-14T23:00:37.867Z,34.80
2018-01-14T23:03:05.118Z,37.20
2018-01-14T23:05:32.361Z,32.40
2018-01-14T23:07:59.646Z,36.13
2018-01-14T23:10:26.862Z,35.17
2018-01-14T23:12:54.088Z,36.00
2018-01-14T23:15:21.352Z,36.53
2018-01-14T23:17:48.585Z,33.70
2018-01-14T23:20:16.211Z,36.73
2018-01-14T23:22:43.428Z,41.40
2018-01-14T23:25:12.107Z,35.90
2018-01-14T23:27:39.365Z,39.37
2018-01-14T23:30:06.948Z,40.13
2018-01-14T23:32:34.196Z,37.13
2018-01-14T23:35:01.422Z,33.50
2018-01-14T23:37:28.637Z,41.20
2018-01-14T23:39:55.853Z,42.00
2018-01-14T23:42:23.081Z,37.27
2018-01-14T23:44:50.298Z,52.60
2018-01-14T23:47:17.527Z,35.50
2018-01-14T23:49:45.768Z,36.37
2018-01-14T23:52:12.992Z,38.90
2018-01-14T23:54:40.217Z,44.70
2018-01-14T23:57:07.431Z,39.17
2018-01-14T23:59:34.659Z,40.57
